Ana Sayfa
METAR-TAF:

METAR-TAF

Havaalanları :

Port Moresby, Papua Yeni Gine

Enlem: 09-26S, Boylam: 147-13E, yükseklik: 38 m

Güncel hava durumu gözlemi

Rapor saat 06:00 UTC de 21 dakika önce yapıldı.
Rüzgar güney/güneydoğudan 15 kt ve 26 kt'a kadar ani rüzgarlar
Sıcaklık 28°C
Nem 74%
Basınç 1010 hPa
Görüş mesafesi 10 km veya daha fazla
3000 ft yükseklikte az bulutlu
5000 ft yükseklikte az bulutlu

METAR: AYPY 240600Z 16015G26KT 9999 FUHZ FEW030 FEW050 28/23 Q1010

Saat: 16:21 (06:21 UTC)

Tahmin

Rapor saat 03:30 UTC de 2 saat ve 51 dakika önce yapıldı.
Ayın 24'si saat 06 UTC'den ayın 25'si saat 06 UTC'ye kadar geçerli Tahmin
Rüzgar güney/güneydoğudan 15 kt ve 26 kt'a kadar ani rüzgarlar
Görüş mesafesi 10 km veya daha fazla
2000 ft yükseklikte parçalı bulutlu
Ayın 14'si saat 1000 UTC'den
Rüzgar güneydoğudan 12 kt
Görüş mesafesi 10 km veya daha fazla
4000 ft yükseklikte parçalı çok bulutlu

TAF: AYPY 240330Z 2406/2506 15015G26KT 9999 SCT020 FM1410000 14012KT 9999 BKN040

4.000'den fazla havaalanı için hava durumu gözlemleri ve tahminleri (METAR ve TAF raporları).

Kullanılabilir istasyonlar harita üzerinde sarı ve kırmızı noktalarla gösterilir.

İstasyonun adını görmek için fareyi noktanın üzerinde gezdirin.

Sonrasında hava gözlem ve tahminlerini görmek için tıklayın.

Haritayı değiştirmek için: yaklaştırmak için siyah artı işaretli yeşil düğmeye ve uzaklaştırmak için de eksi işaretli düğmeye hızla tıklayın; bitişik haritalar için yeşil okları kullanın.


METAR-TAF: